Latest Weather Observations for Sydney Airport

IDN60901

Issued at 2:21 pm EST Thursday 26 May 2022 (issued every 10 minutes, with the page automatically refreshed every 10 minutes)

About weather observations | Map of Sydney area stations | Latest observations for Sydney area | Other Formats
Station Details ID: 066037 Name: SYDNEY AIRPORT AMO Lat: -33.95 Lon: 151.17 Height: 6.0 m
Data from the previous 72 hours. | See also: Recent months at Sydney Airport
Date/Time
EST
Temp
°C
App
Temp
°C
Dew
Point
°C
Rel
Hum
%
Delta-T
°C
Wind Press
QNH
hPa
Press
MSL
hPa
Rain since
9am
mm
Dir  Spd
km/h
Gust
km/h
Spd
kts
Gust
kts
26/02:00pm 20.3 18.8 13.0 63 4.1 NNE 13 19 7 10 1018.5 1018.5 0.0
26/01:30pm 19.9 19.8 13.4 66 3.7 NNE 6 13 3 7 1018.6 1018.6 0.0
26/01:00pm 21.0 20.7 13.2 61 4.4 ENE 7 11 4 6 1018.9 1018.9 0.0
26/12:30pm 20.3 18.8 13.0 63 4.1 N 13 17 7 9 1019.3 1019.3 0.0
26/12:00pm 19.9 19.0 12.7 63 4.0 N 9 15 5 8 1019.9 1019.9 0.0
26/11:30am 20.0 18.9 13.0 64 4.0 NW 11 15 6 8 1020.5 1020.5 0.0
26/11:00am 18.6 17.6 12.4 67 3.4 WNW 9 13 5 7 1020.8 1020.8 0.0
26/10:30am 18.4 17.1 12.4 68 3.3 W 11 15 6 8 1021.2 1021.2 0.0
26/10:00am 18.9 18.2 13.1 69 3.3 W 9 15 5 8 1021.4 1021.4 0.0
26/09:30am 17.5 16.5 12.4 72 2.8 NNW 9 11 5 6 1021.5 1021.5 0.0
26/09:00am 16.2 15.2 12.4 78 2.1 NW 9 13 5 7 1021.6 1021.6 0.4
26/08:30am 15.5 13.7 12.1 80 1.9 NW 13 15 7 8 1021.6 1021.6 0.4
26/08:00am 14.3 12.7 11.5 83 1.5 NW 11 15 6 8 1021.5 1021.5 0.4
26/07:30am 13.2 10.8 11.4 89 1.0 WNW 15 19 8 10 1021.3 1021.3 0.4
26/07:00am 12.5 10.3 10.9 90 0.8 WNW 13 17 7 9 1021.0 1021.0 0.4
26/06:30am 12.7 10.5 10.9 89 0.9 NNW 13 15 7 8 1020.6 1020.6 0.4
26/06:00am 12.8 11.2 11.4 91 0.7 NW 11 11 6 6 1020.3 1020.3 0.4
26/05:30am 12.6 11.2 11.0 90 0.8 NNW 9 13 5 7 1020.2 1020.2 0.4
26/05:00am 12.5 11.1 10.9 90 0.8 NW 9 11 5 6 1020.0 1020.0 0.4
26/04:30am 12.4 11.4 11.0 91 0.7 NW 7 13 4 7 1019.8 1019.8 0.4
26/04:00am 12.1 9.5 10.8 92 0.7 NW 15 19 8 10 1019.9 1019.9 0.4
26/03:30am 12.2 10.4 10.9 92 0.7 NW 11 13 6 7 1020.1 1020.1 0.4
26/03:00am 12.2 10.5 11.1 93 0.6 NNW 11 13 6 7 1020.1 1020.1 0.4
26/02:30am 12.2 10.4 10.9 92 0.7 NW 11 13 6 7 1020.4 1020.4 0.4
26/02:00am 12.4 11.1 11.1 92 0.7 NW 9 11 5 6 1020.6 1020.6 0.4
26/01:30am 12.5 10.4 11.2 92 0.7 NW 13 13 7 7 1020.7 1020.7 0.4
26/01:00am 12.8 10.8 11.5 92 0.7 NW 13 15 7 8 1020.9 1020.9 0.4
26/12:30am 12.8 11.2 11.5 92 0.7 NW 11 13 6 7 1021.1 1021.1 0.4
26/12:00am 13.0 11.0 11.6 91 0.7 NW 13 15 7 8 1021.2 1021.2 0.4
 
Date/Time
EST
Temp
°C
App
Temp
°C
Dew
Point
°C
Rel
Hum
%
Delta-T
°C
Wind Press
QNH
hPa
Press
MSL
hPa
Rain since
9am
mm
Dir  Spd
km/h
Gust
km/h
Spd
kts
Gust
kts
25/11:30pm 13.4 12.3 12.0 91 0.8 NNW 9 13 5 7 1021.4 1021.4 0.4
25/11:00pm 13.6 12.1 12.0 90 0.9 NNW 11 17 6 9 1021.5 1021.5 0.4
25/10:30pm 13.6 12.1 11.8 89 1.0 WNW 11 13 6 7 1021.6 1021.6 0.4
25/10:00pm 14.3 12.3 12.7 90 0.9 WNW 15 20 8 11 1021.9 1021.9 0.4
25/09:30pm 15.2 14.1 13.2 88 1.1 WSW 11 26 6 14 1022.0 1022.0 0.4
25/09:00pm 14.8 13.7 13.0 89 1.0 SW 11 20 6 11 1021.9 1021.9 0.4
25/08:30pm 14.7 13.6 13.1 90 0.9 SW 11 13 6 7 1022.0 1022.0 0.4
25/08:00pm 15.1 13.7 13.5 90 0.9 WSW 13 13 7 7 1022.0 1022.0 0.4
25/07:30pm 15.2 14.6 13.4 89 1.0 SW 9 11 5 6 1021.9 1021.9 0.4
25/07:00pm 15.2 14.1 13.1 87 1.2 SW 11 13 6 7 1021.8 1021.8 0.4
25/06:30pm 15.2 13.3 13.1 87 1.2 SW 15 17 8 9 1021.7 1021.7 0.4
25/06:00pm 15.9 14.9 13.4 85 1.4 S 11 13 6 7 1022.1 1022.1 0.4
25/05:30pm 16.2 15.5 13.3 83 1.6 S 9 11 5 6 1022.0 1022.0 0.4
25/05:00pm 16.2 14.7 13.1 82 1.7 SE 13 15 7 8 1021.8 1021.8 0.4
25/04:30pm 17.0 15.5 14.3 84 1.5 SSE 15 20 8 11 1021.8 1021.8 0.4
25/04:00pm 16.9 15.1 13.4 80 2.0 S 15 24 8 13 1021.8 1021.8 0.4
25/03:30pm 17.0 15.3 13.5 80 2.0 S 15 20 8 11 1021.8 1021.8 0.4
25/03:00pm 17.2 15.5 13.5 79 2.1 SSE 15 19 8 10 1021.7 1021.7 0.4
25/02:30pm 17.3 15.7 14.0 81 1.9 SSE 15 17 8 9 1021.8 1021.8 0.4
25/02:00pm 17.1 16.2 13.6 80 2.0 S 11 13 6 7 1021.9 1021.9 0.4
25/01:30pm 17.4 16.0 13.5 78 2.2 SSE 13 17 7 9 1022.2 1022.2 0.4
25/01:00pm 17.2 16.0 13.9 81 1.9 SSE 13 15 7 8 1022.5 1022.5 0.4
25/12:30pm 16.8 15.8 13.5 81 1.9 S 11 15 6 8 1022.9 1022.9 0.4
25/12:00pm 17.0 16.7 13.3 79 2.1 - 7 13 4 7 1023.6 1023.6 0.2
25/11:30am 17.8 16.6 12.9 73 2.7 S 11 13 6 7 1024.1 1024.1 0.0
25/11:00am 17.5 18.0 12.8 74 2.6 SW 2 11 1 6 1024.6 1024.6 0.0
25/10:30am 18.3 17.7 13.6 74 2.7 NW 9 19 5 10 1024.9 1024.9 0.0
25/10:00am 17.0 16.3 13.3 79 2.1 NW 9 11 5 6 1025.3 1025.3 0.0
25/09:30am 16.3 14.9 13.4 83 1.6 NNW 13 15 7 8 1025.5 1025.5 0.0
25/09:00am 15.8 15.5 13.3 85 1.4 WNW 7 13 4 7 1025.3 1025.3 4.2
25/08:30am 14.7 13.5 12.7 88 1.1 SW 11 22 6 12 1025.2 1025.2 4.2
25/08:00am 14.1 12.3 13.3 95 0.4 SW 15 17 8 9 1025.1 1025.1 4.2
25/07:30am 12.7 10.5 12.1 96 0.3 WSW 15 24 8 13 1025.1 1025.1 4.2
25/07:00am 11.9 9.0 11.1 95 0.4 WSW 17 20 9 11 1025.1 1025.1 4.2
25/06:30am 11.8 9.7 11.0 95 0.4 WSW 13 19 7 10 1025.5 1025.5 4.0
25/06:00am 12.0 10.7 11.4 96 0.3 WNW 9 11 5 6 1025.2 1025.2 3.8
25/05:30am 12.4 10.5 11.8 96 0.3 NW 13 26 7 14 1025.0 1025.0 2.4
25/05:00am 12.1 9.3 11.5 96 0.3 N 17 22 9 12 1025.1 1025.1 2.4
25/04:30am 11.5 9.0 10.9 96 0.3 NNW 15 19 8 10 1024.6 1024.6 2.4
25/04:00am 11.2 9.0 10.7 97 0.3 NW 13 15 7 8 1024.6 1024.6 2.4
25/03:30am 11.4 9.2 10.9 97 0.3 NW 13 13 7 7 1024.9 1024.9 2.4
25/03:00am 11.5 9.7 11.0 97 0.3 NW 11 15 6 8 1024.8 1024.8 2.4
25/02:30am 12.0 9.6 11.4 96 0.3 NNW 15 17 8 9 1025.1 1025.1 2.4
25/02:00am 12.3 12.0 11.4 94 0.5 NNW 4 9 2 5 1025.5 1025.5 2.4
25/01:30am 13.0 11.2 12.2 95 0.4 W 13 15 7 8 1025.7 1025.7 2.4
25/01:00am 12.9 11.1 12.0 94 0.5 WSW 13 15 7 8 1025.9 1025.9 2.4
25/12:30am 13.6 13.3 12.7 94 0.5 NNW 6 11 3 6 1026.0 1026.0 2.4
25/12:00am 13.3 12.3 12.2 93 0.6 N 9 9 5 5 1026.4 1026.4 2.2
 
Date/Time
EST
Temp
°C
App
Temp
°C
Dew
Point
°C
Rel
Hum
%
Delta-T
°C
Wind Press
QNH
hPa
Press
MSL
hPa
Rain since
9am
mm
Dir  Spd
km/h
Gust
km/h
Spd
kts
Gust
kts
24/11:30pm 13.8 12.9 12.7 93 0.6 WNW 9 11 5 6 1026.5 1026.5 2.2
24/11:00pm 13.7 12.4 12.6 93 0.6 W 11 13 6 7 1026.7 1026.7 2.2
24/10:30pm 13.5 12.5 12.4 93 0.6 SW 9 9 5 5 1027.0 1027.0 2.2
24/10:00pm 13.8 12.8 12.2 90 0.9 W 9 11 5 6 1027.1 1027.1 2.2
24/09:30pm 14.5 13.8 13.2 92 0.7 WNW 9 15 5 8 1027.1 1027.1 2.2
24/09:00pm 14.5 14.2 13.2 92 0.7 W 7 11 4 6 1027.3 1027.3 2.0
24/08:30pm 14.9 13.9 13.3 90 0.9 WNW 11 15 6 8 1027.2 1027.2 1.8
24/08:00pm 14.3 12.8 13.0 92 0.7 WSW 13 15 7 8 1027.0 1027.0 1.8
24/07:30pm 14.7 14.1 13.4 92 0.7 SSW 9 11 5 6 1026.9 1026.9 1.8
24/07:00pm 14.8 15.0 13.2 90 0.9 E 4 7 2 4 1026.7 1026.7 1.8
24/06:30pm 15.2 13.6 12.9 86 1.3 E 13 20 7 11 1026.5 1026.5 1.8
24/06:00pm 16.1 15.6 12.7 80 1.9 NE 7 9 4 5 1026.2 1026.2 1.8
24/05:30pm 15.7 14.8 12.6 82 1.7 NNE 9 11 5 6 1026.1 1026.1 1.8
24/05:00pm 16.4 15.6 12.8 79 2.0 NE 9 9 5 5 1026.0 1026.0 1.8
24/04:30pm 17.1 16.5 12.2 73 2.7 NNE 7 9 4 5 1026.0 1026.0 1.8
24/04:00pm 17.5 16.4 12.0 70 3.0 NNE 9 11 5 6 1025.9 1025.9 1.8
24/03:30pm 17.7 16.9 13.0 74 2.6 NNE 9 13 5 7 1026.0 1026.0 1.8
24/03:00pm 17.6 16.2 13.5 77 2.3 NNE 13 15 7 8 1026.1 1026.1 1.8
24/02:30pm 17.0 16.2 13.9 82 1.8 NNE 11 13 6 7 1026.1 1026.1 1.8
24/02:00pm 16.5 15.7 12.8 79 2.0 N 9 11 5 6 1026.2 1026.2 1.8
24/01:30pm 16.0 15.5 12.7 81 1.8 N 7 9 4 5 1026.4 1026.4 1.8
24/01:00pm 15.7 14.8 13.7 88 1.1 NE 11 15 6 8 1026.8 1026.8 1.8
24/12:30pm 15.5 13.4 13.7 89 1.0 SW 17 24 9 13 1027.0 1027.0 1.8
24/12:00pm 15.2 11.7 13.4 89 1.0 SSW 24 35 13 19 1027.4 1027.4 1.2
24/11:30am 16.5 14.0 13.4 82 1.7 SW 19 26 10 14 1027.6 1027.6 0.0
24/11:00am 16.3 16.0 14.3 88 1.1 W 9 20 5 11 1028.0 1028.0 0.0
24/10:30am 16.2 15.4 14.0 87 1.2 WNW 11 19 6 10 1028.3 1028.3 0.0
24/10:00am 15.9 15.4 13.7 87 1.2 NW 9 13 5 7 1028.4 1028.4 0.0
24/09:30am 15.5 15.0 13.9 90 0.9 WNW 9 11 5 6 1028.4 1028.4 0.0
24/09:00am 14.8 13.3 13.2 90 0.9 NW 13 17 7 9 1028.5 1028.5 59.0
24/08:30am 14.5 13.0 13.2 92 0.7 NW 13 15 7 8 1028.4 1028.4 59.0
24/08:00am 14.1 13.0 13.0 93 0.6 NNW 11 15 6 8 1028.3 1028.3 59.0
24/07:30am 13.7 12.1 12.8 94 0.5 NW 13 17 7 9 1028.0 1028.0 59.0
24/07:00am 13.5 11.9 12.7 95 0.4 NW 13 15 7 8 1027.9 1027.9 59.0
24/06:30am 13.7 11.8 12.9 95 0.4 NW 15 17 8 9 1027.7 1027.7 59.0
24/06:00am 14.2 13.6 13.6 96 0.3 NW 9 11 5 6 1027.5 1027.5 59.0
24/05:30am 13.4 12.6 12.8 96 0.3 WNW 9 13 5 7 1027.3 1027.3 58.8
24/05:00am 13.6 12.5 13.1 97 0.3 WNW 11 15 6 8 1027.4 1027.4 58.8
24/04:30am 13.4 11.4 12.8 96 0.3 W 15 20 8 11 1027.4 1027.4 58.6
24/04:00am 13.4 12.5 12.6 95 0.4 WNW 9 13 5 7 1027.1 1027.1 56.8
24/03:30am 13.9 13.5 13.0 94 0.5 N 7 11 4 6 1027.6 1027.6 55.0
24/03:11am 14.0 12.9 13.2 95 0.4 N 11 15 6 8 1027.8 1027.8 54.2
24/03:00am 14.0 12.5 13.1 94 0.5 N 13 17 7 9 1027.9 1027.9 53.8
24/02:58am 13.9 12.0 13.0 94 0.5 N 15 20 8 11 1028.0 1028.0 53.6
24/02:30am 14.2 12.2 12.8 91 0.8 SE 15 19 8 10 1027.9 1027.9 52.0
24/02:01am 15.1 13.0 13.5 90 0.9 S 17 28 9 15 1027.7 1027.7 49.8
24/02:00am 15.0 12.8 13.4 90 0.9 S 17 28 9 15 1027.7 1027.7 49.8
24/01:46am 14.6 11.8 13.1 91 0.8 WSW 20 46 11 25 1027.9 1027.9 49.6
24/01:30am 14.3 12.5 13.2 93 0.6 S 15 19 8 10 1027.8 1027.8 45.0
24/01:00am 14.1 12.7 13.3 95 0.4 SSW 13 19 7 10 1027.9 1027.9 44.8
24/12:49am 13.6 12.0 12.8 95 0.4 N 13 20 7 11 1028.0 1028.0 43.4
24/12:35am 13.3 12.7 12.2 93 0.6 NW 7 13 4 7 1027.9 1027.9 35.2
24/12:30am 13.8 12.6 12.9 94 0.5 WNW 11 13 6 7 1027.7 1027.7 33.4
24/12:00am 13.3 11.9 12.2 93 0.6 W 11 13 6 7 1028.1 1028.1 33.4
 
Date/Time
EST
Temp
°C
App
Temp
°C
Dew
Point
°C
Rel
Hum
%
Delta-T
°C
Wind Press
QNH
hPa
Press
MSL
hPa
Rain since
9am
mm
Dir  Spd
km/h
Gust
km/h
Spd
kts
Gust
kts
23/11:30pm 13.6 11.9 12.5 93 0.6 WNW 13 13 7 7 1028.1 1028.1 33.4
23/11:00pm 14.1 13.2 12.7 91 0.8 WNW 9 13 5 7 1028.4 1028.4 33.4
23/10:30pm 14.7 14.2 12.6 87 1.1 SSW 7 9 4 5 1028.4 1028.4 33.4
23/10:00pm 14.9 13.2 12.6 86 1.3 SSE 13 19 7 10 1028.5 1028.5 33.4
23/09:30pm 16.4 14.7 12.6 78 2.1 SE 13 19 7 10 1028.6 1028.6 33.4
23/09:00pm 15.8 14.1 13.6 87 1.2 SSE 15 20 8 11 1028.6 1028.6 33.4
23/08:30pm 15.5 12.8 12.8 84 1.5 SSE 19 26 10 14 1028.6 1028.6 33.4
23/08:00pm 15.6 13.2 13.8 89 1.0 SSE 19 24 10 13 1028.6 1028.6 33.4
23/07:30pm 14.7 12.6 13.7 94 0.6 S 17 20 9 11 1028.6 1028.6 33.4
23/07:00pm 14.7 13.4 13.6 93 0.6 SSW 13 17 7 9 1028.5 1028.5 33.4
23/06:30pm 14.7 13.7 13.4 92 0.7 S 11 13 6 7 1028.4 1028.4 33.4
23/06:00pm 14.8 13.0 13.3 91 0.8 S 15 17 8 9 1028.5 1028.5 33.4
23/05:30pm 14.8 12.6 13.3 91 0.8 S 17 20 9 11 1028.4 1028.4 33.4
23/05:00pm 15.0 13.2 13.2 89 1.0 S 15 19 8 10 1028.2 1028.2 33.2
23/04:30pm 14.7 13.8 12.6 87 1.1 SSE 9 11 5 6 1028.1 1028.1 33.2
23/04:00pm 14.9 14.5 12.9 88 1.1 SSE 7 9 4 5 1028.1 1028.1 33.2
23/03:30pm 15.4 14.9 13.9 91 0.8 ENE 9 13 5 7 1027.9 1027.9 32.8
23/03:00pm 15.2 12.6 13.2 88 1.1 ENE 19 26 10 14 1027.9 1027.9 32.4
23/02:30pm 15.4 11.8 12.9 85 1.4 E 24 32 13 17 1027.8 1027.8 31.6

Latest Capital City Observations: Canberra | Sydney | Melbourne | Brisbane | Adelaide | Perth | Hobart | Darwin

Other formats

Comma delimited format used in spreadsheet applications
http://www.bom.gov.au/fwo/IDN60901/IDN60901.94767.axf

JavaScript Object Notation format (JSON) in row-major order
http://www.bom.gov.au/fwo/IDN60901/IDN60901.94767.json

Data quality

Most of these data are generated automatically and are frequently updated. Quality checks on data are not normally performed. It is possible for incorrect values to appear. Refer to information at About Latest Weather Observations and please check the disclaimer before using these data.